Time;durP1;ratioP1;P1;durP2;ratioP2;P2;SDS_P1;SDS_P2;PMS_P1;PMS_P2;Temp;Humidity;BMP_temperature;BMP_pressure;BME280_temperature;BME280_humidity;BME280_pressure;Samples;Min_cycle;Max_cycle;Signal;HPM_P1;HPM_P2
2022/05/13 11:28:25;;;;;;;;;;;18.20;63.50;;;;;;5097020;28;20041;-70
2022/05/13 11:31:25;;;;;;;;;;;18.30;63.40;;;;;;5017176;28;19922;-70
2022/05/13 11:33:56;;;;;;;;;;;18.30;63.60;;;;;;5018787;28;19909;-70
2022/05/13 11:36:31;;;;;;;;;;;18.30;63.10;;;;;;5045071;28;19964;-70
2022/05/13 11:39:05;;;;;;;;;;;18.30;63.80;;;;;;5048891;28;19991;-70
2022/05/13 11:41:49;;;;;;;;;;;18.30;63.70;;;;;;5056257;28;19914;-70
2022/05/13 11:44:17;;;;;;;;;;;18.40;64.00;;;;;;5050111;28;19983;-70
2022/05/13 11:46:58;;;;;;;;;;;18.40;63.90;;;;;;5050845;28;20000;-70
2022/05/13 11:49:26;;;;;;;;;;;18.60;63.60;;;;;;5049376;28;19915;-70
2022/05/13 11:51:52;;;;;;;;;;;18.60;63.70;;;;;;4969916;28;19917;-70
2022/05/13 11:54:17;;;;;;;;;;;18.60;63.40;;;;;;5026681;28;20262;-70
2022/05/13 11:56:46;;;;;;;;;;;18.60;63.10;;;;;;5031414;28;19909;-70
2022/05/13 11:59:24;;;;;;;;;;;18.60;63.10;;;;;;5030012;28;19909;-70
2022/05/13 12:05:04;;;;;;;;;;;18.70;62.90;;;;;;5030007;28;19955;-70
2022/05/13 12:07:31;;;;;;;;;;;18.70;62.20;;;;;;5028201;28;20449;-70
2022/05/13 12:09:57;;;;;;;;;;;18.70;62.90;;;;;;5030954;28;19936;-70
2022/05/13 12:12:49;;;;;;;;;;;18.70;62.10;;;;;;5030984;28;19913;-70
2022/05/13 12:15:18;;;;;;;;;;;18.70;62.70;;;;;;5049861;28;20432;-70
2022/05/13 12:17:57;;;;;;;;;;;18.80;62.20;;;;;;5052255;28;19909;-70
2022/05/13 12:20:38;;;;;;;;;;;18.80;62.40;;;;;;5037747;28;19920;-70
2022/05/13 12:23:03;;;;;;;;;;;18.80;62.60;;;;;;5049295;28;19999;-70
2022/05/13 12:25:28;;;;;;;;;;;18.80;61.90;;;;;;5048190;28;20003;-70
2022/05/13 12:28:04;;;;;;;;;;;18.80;62.40;;;;;;5060256;28;20453;-70
2022/05/13 12:30:30;;;;;;;;;;;18.90;62.00;;;;;;5043988;28;19921;-70
2022/05/13 12:32:56;;;;;;;;;;;19.00;62.10;;;;;;5040210;28;20254;-70
2022/05/13 12:38:20;;;;;;;;;;;19.00;62.30;;;;;;5040926;28;19924;-70
2022/05/13 12:40:46;;;;;;;;;;;19.00;62.30;;;;;;5044656;28;19917;-70
2022/05/13 12:46:16;;;;;;;;;;;19.00;62.30;;;;;;5025820;28;20749;-70
2022/05/13 12:49:14;;;;;;;;;;;19.00;62.20;;;;;;5044300;28;20360;-70
2022/05/13 12:51:41;;;;;;;;;;;19.10;61.70;;;;;;4992934;28;20184;-71
2022/05/13 12:54:09;;;;;;;;;;;19.20;61.70;;;;;;5040280;28;19913;-70
2022/05/13 12:56:34;;;;;;;;;;;19.20;60.90;;;;;;5041584;28;19963;-70
2022/05/13 12:59:03;;;;;;;;;;;19.40;61.40;;;;;;5046447;28;19944;-70
2022/05/13 13:01:29;;;;;;;;;;;19.50;60.80;;;;;;5043861;28;19963;-70
2022/05/13 13:03:55;;;;;;;;;;;19.60;61.00;;;;;;5049688;28;19913;-70
2022/05/13 13:06:21;;;;;;;;;;;19.60;60.40;;;;;;5043583;28;19916;-71
2022/05/13 13:08:52;;;;;;;;;;;19.70;61.10;;;;;;5043249;28;19952;-70
2022/05/13 13:11:37;;;;;;;;;;;19.80;60.40;;;;;;5048071;28;19909;-70
2022/05/13 13:14:05;;;;;;;;;;;19.90;60.90;;;;;;5050254;28;19935;-70
2022/05/13 13:16:37;;;;;;;;;;;19.80;60.60;;;;;;5041560;28;19913;-70
2022/05/13 13:19:07;;;;;;;;;;;19.80;60.40;;;;;;5044427;28;19917;-70
2022/05/13 13:21:33;;;;;;;;;;;19.80;60.60;;;;;;5044813;28;19935;-70
2022/05/13 13:24:00;;;;;;;;;;;19.70;60.90;;;;;;5042853;28;20350;-70
2022/05/13 13:26:25;;;;;;;;;;;19.70;61.00;;;;;;5038809;28;19913;-70
2022/05/13 13:28:52;;;;;;;;;;;19.70;60.60;;;;;;5047864;28;20054;-70
2022/05/13 13:31:25;;;;;;;;;;;19.80;60.60;;;;;;5039159;28;19913;-70
2022/05/13 13:33:53;;;;;;;;;;;19.90;59.70;;;;;;5028237;28;19974;-70
2022/05/13 13:36:21;;;;;;;;;;;20.00;60.80;;;;;;5035227;28;19909;-69
2022/05/13 13:38:49;;;;;;;;;;;20.00;60.10;;;;;;4976324;28;21613;-69
2022/05/13 13:41:24;;;;;;;;;;;20.00;60.80;;;;;;4988719;28;20599;-70
2022/05/13 13:43:58;;;;;;;;;;;20.10;60.50;;;;;;5019601;28;19909;-70
2022/05/13 13:46:30;;;;;;;;;;;20.20;60.50;;;;;;5035244;28;19928;-70
2022/05/13 13:48:56;;;;;;;;;;;20.40;61.20;;;;;;5033612;28;19913;-71
2022/05/13 13:51:30;;;;;;;;;;;20.50;59.80;;;;;;5039855;28;20269;-70
2022/05/13 13:53:56;;;;;;;;;;;20.60;60.20;;;;;;5034926;28;20263;-70
2022/05/13 13:56:22;;;;;;;;;;;20.60;60.00;;;;;;5021900;28;19924;-71
2022/05/13 13:58:47;;;;;;;;;;;20.70;59.70;;;;;;5035018;28;20392;-70
2022/05/13 14:01:17;;;;;;;;;;;20.80;59.40;;;;;;5037003;28;19917;-69
2022/05/13 14:03:43;;;;;;;;;;;20.90;60.10;;;;;;5041833;28;21303;-70
2022/05/13 14:06:12;;;;;;;;;;;20.80;59.70;;;;;;5040651;28;19999;-71
2022/05/13 14:08:38;;;;;;;;;;;20.70;58.80;;;;;;5045265;28;19949;-69
2022/05/13 14:11:10;;;;;;;;;;;20.70;59.70;;;;;;5035904;28;19970;-70
2022/05/13 14:13:38;;;;;;;;;;;20.80;60.20;;;;;;5039835;28;19909;-70
2022/05/13 14:16:11;;;;;;;;;;;20.80;60.40;;;;;;5039038;28;20274;-70
2022/05/13 14:18:37;;;;;;;;;;;20.90;59.90;;;;;;5040037;28;19971;-70
2022/05/13 14:21:18;;;;;;;;;;;20.90;58.60;;;;;;5038414;28;19913;-69
2022/05/13 14:23:44;;;;;;;;;;;20.90;58.80;;;;;;5038951;28;19921;-69
2022/05/13 14:26:10;;;;;;;;;;;20.90;58.90;;;;;;5042095;28;20702;-70
2022/05/13 14:28:49;;;;;;;;;;;21.10;59.90;;;;;;5041054;28;19916;-70
2022/05/13 14:31:44;;;;;;;;;;;21.10;58.90;;;;;;5050900;28;19916;-70
2022/05/13 14:34:12;;;;;;;;;;;21.10;59.60;;;;;;5033829;28;20404;-69
2022/05/13 14:36:42;;;;;;;;;;;21.20;58.90;;;;;;5010754;28;19927;-70
2022/05/13 14:42:01;;;;;;;;;;;21.40;58.00;;;;;;5039114;28;19920;-70
2022/05/13 14:44:29;;;;;;;;;;;21.50;58.50;;;;;;5036209;28;20432;-70
2022/05/13 14:47:05;;;;;;;;;;;21.50;58.00;;;;;;5033036;28;20373;-70
2022/05/13 14:49:31;;;;;;;;;;;21.60;58.10;;;;;;5032463;28;19921;-70
2022/05/13 14:51:57;;;;;;;;;;;21.70;57.10;;;;;;5010072;28;19909;-70
2022/05/13 14:54:24;;;;;;;;;;;21.80;58.00;;;;;;5015244;28;19920;-70
2022/05/13 14:56:55;;;;;;;;;;;21.70;57.50;;;;;;5027330;28;20012;-70
2022/05/13 14:59:36;;;;;;;;;;;21.90;57.40;;;;;;5013411;28;20011;-70
2022/05/13 15:02:02;;;;;;;;;;;22.00;56.60;;;;;;5035896;28;19913;-70
2022/05/13 15:04:29;;;;;;;;;;;22.00;56.80;;;;;;4994539;28;19936;-70
2022/05/13 15:06:55;;;;;;;;;;;22.00;56.10;;;;;;4992162;28;19943;-70
2022/05/13 15:09:30;;;;;;;;;;;22.20;56.80;;;;;;5034710;28;19932;-70
2022/05/13 15:11:56;;;;;;;;;;;22.30;56.20;;;;;;5040627;28;19920;-70
2022/05/13 15:14:22;;;;;;;;;;;22.40;56.20;;;;;;5030368;28;19920;-70
2022/05/13 15:16:48;;;;;;;;;;;22.60;55.90;;;;;;5019609;28;20409;-70
2022/05/13 15:19:25;;;;;;;;;;;22.80;55.20;;;;;;5035581;28;20004;-70
2022/05/13 15:22:00;;;;;;;;;;;23.10;54.90;;;;;;5039173;28;20771;-70
2022/05/13 15:24:27;;;;;;;;;;;23.40;54.30;;;;;;5034022;28;19924;-70
2022/05/13 15:26:52;;;;;;;;;;;23.60;54.20;;;;;;5041511;28;19916;-70
2022/05/13 15:29:18;;;;;;;;;;;23.80;54.10;;;;;;5035306;28;20457;-70
2022/05/13 15:31:43;;;;;;;;;;;23.90;53.70;;;;;;5039355;28;20039;-70
2022/05/13 15:34:09;;;;;;;;;;;24.00;53.80;;;;;;5037801;28;20469;-70
2022/05/13 15:36:35;;;;;;;;;;;24.10;53.60;;;;;;5036997;28;20412;-70
2022/05/13 15:39:02;;;;;;;;;;;24.00;53.40;;;;;;5040379;28;19920;-70
2022/05/13 15:41:28;;;;;;;;;;;24.00;54.00;;;;;;5033327;28;19926;-70
2022/05/13 15:43:53;;;;;;;;;;;24.20;53.90;;;;;;5037090;28;19909;-70
2022/05/13 15:46:27;;;;;;;;;;;24.30;53.60;;;;;;5029103;28;20533;-70
2022/05/13 15:48:53;;;;;;;;;;;24.50;53.20;;;;;;5036622;28;19913;-70
2022/05/13 15:54:03;;;;;;;;;;;24.80;52.70;;;;;;5035835;28;19920;-70
2022/05/13 15:56:39;;;;;;;;;;;24.90;52.90;;;;;;5036242;28;19921;-70
2022/05/13 15:59:05;;;;;;;;;;;25.10;52.50;;;;;;5018975;28;19912;-70
2022/05/13 16:01:30;;;;;;;;;;;25.30;52.20;;;;;;5036795;28;19940;-69
2022/05/13 16:03:56;;;;;;;;;;;25.60;52.10;;;;;;5037285;28;19909;-70
2022/05/13 16:06:21;;;;;;;;;;;25.80;51.60;;;;;;5036758;28;19919;-70
2022/05/13 16:08:47;;;;;;;;;;;26.00;51.40;;;;;;5041715;28;20007;-70
2022/05/13 16:11:15;;;;;;;;;;;26.20;51.00;;;;;;5013398;28;19967;-70
2022/05/13 16:13:42;;;;;;;;;;;26.40;50.90;;;;;;5024610;28;19916;-70
2022/05/13 16:16:23;;;;;;;;;;;26.50;50.80;;;;;;5037806;28;20051;-70
2022/05/13 16:18:49;;;;;;;;;;;26.70;50.60;;;;;;5023001;28;20466;-70
2022/05/13 16:21:17;;;;;;;;;;;26.90;50.50;;;;;;5035687;28;19921;-70
2022/05/13 16:23:44;;;;;;;;;;;27.00;50.40;;;;;;5038439;28;19913;-71
2022/05/13 16:26:14;;;;;;;;;;;27.10;50.10;;;;;;5036514;28;19917;-72
2022/05/13 16:28:41;;;;;;;;;;;27.30;50.00;;;;;;5036730;28;19924;-72
2022/05/13 16:31:06;;;;;;;;;;;27.30;49.70;;;;;;5033030;28;20853;-72
2022/05/13 16:33:32;;;;;;;;;;;27.50;49.80;;;;;;5035446;28;19923;-71
2022/05/13 16:35:57;;;;;;;;;;;27.60;49.80;;;;;;5039325;28;19938;-72
2022/05/13 16:38:23;;;;;;;;;;;27.80;49.20;;;;;;5028259;28;19917;-72
2022/05/13 16:40:49;;;;;;;;;;;27.80;49.40;;;;;;5036983;28;19920;-71
2022/05/13 16:43:14;;;;;;;;;;;27.90;49.30;;;;;;5035204;28;19921;-71
2022/05/13 16:45:41;;;;;;;;;;;27.90;49.50;;;;;;5022780;28;19917;-71
2022/05/13 16:48:07;;;;;;;;;;;27.70;49.30;;;;;;5034093;28;19967;-72
2022/05/13 16:50:33;;;;;;;;;;;27.40;49.50;;;;;;5031512;28;20392;-72
2022/05/13 16:53:00;;;;;;;;;;;27.10;50.30;;;;;;5030064;28;19917;-72
2022/05/13 16:55:27;;;;;;;;;;;26.80;50.60;;;;;;5033620;28;19955;-73
2022/05/13 16:57:52;;;;;;;;;;;26.50;51.40;;;;;;5033587;28;19917;-72
2022/05/13 17:00:21;;;;;;;;;;;26.20;51.60;;;;;;5030148;28;19971;-71
2022/05/13 17:02:47;;;;;;;;;;;26.00;52.40;;;;;;5035021;28;19909;-72
2022/05/13 17:05:13;;;;;;;;;;;25.70;52.50;;;;;;5037023;28;20017;-72
2022/05/13 17:07:39;;;;;;;;;;;25.50;52.50;;;;;;5036803;28;19920;-72
2022/05/13 17:18:17;;;;;;;;;;;24.80;53.70;;;;;;5028617;28;20012;-72
2022/05/13 17:20:43;;;;;;;;;;;24.70;53.80;;;;;;5021079;28;19917;-72
2022/05/13 17:23:09;;;;;;;;;;;24.50;52.70;;;;;;5037809;28;20300;-72
2022/05/13 17:25:34;;;;;;;;;;;24.40;53.20;;;;;;5031759;28;19917;-72
2022/05/13 17:28:03;;;;;;;;;;;24.30;53.90;;;;;;5034615;28;20014;-72
2022/05/13 17:30:28;;;;;;;;;;;24.10;53.90;;;;;;5026043;28;19917;-72
2022/05/13 17:32:54;;;;;;;;;;;24.10;53.60;;;;;;5031937;28;19920;-72
2022/05/13 17:35:23;;;;;;;;;;;23.90;54.10;;;;;;5022254;28;20686;-72
2022/05/13 17:37:51;;;;;;;;;;;23.80;54.70;;;;;;5033396;28;19917;-72
2022/05/13 17:40:20;;;;;;;;;;;23.70;53.60;;;;;;5033407;28;19916;-72
2022/05/13 17:42:46;;;;;;;;;;;23.60;54.60;;;;;;5039567;28;19913;-72
2022/05/13 17:45:13;;;;;;;;;;;23.50;55.10;;;;;;4993054;28;19952;-72
2022/05/13 17:47:38;;;;;;;;;;;23.40;55.30;;;;;;5013309;28;19924;-72
2022/05/13 17:50:04;;;;;;;;;;;23.30;55.00;;;;;;5008293;28;20022;-72
2022/05/13 17:52:30;;;;;;;;;;;23.20;54.90;;;;;;4969020;28;19917;-72
2022/05/13 17:54:55;;;;;;;;;;;23.10;55.50;;;;;;5020384;28;19919;-72
2022/05/13 17:57:21;;;;;;;;;;;23.00;55.90;;;;;;5031272;28;20598;-72
2022/05/13 17:59:47;;;;;;;;;;;22.90;55.60;;;;;;5007610;28;20374;-71
2022/05/13 18:02:12;;;;;;;;;;;22.80;55.80;;;;;;5035158;28;19982;-72
2022/05/13 18:04:38;;;;;;;;;;;22.70;56.10;;;;;;4951158;28;19913;-73
2022/05/13 18:07:03;;;;;;;;;;;22.60;56.20;;;;;;4936219;28;20620;-72
2022/05/13 18:09:29;;;;;;;;;;;22.50;55.70;;;;;;4958901;28;19990;-72
2022/05/13 18:11:54;;;;;;;;;;;22.40;55.30;;;;;;4997353;28;19952;-72
2022/05/13 18:14:20;;;;;;;;;;;22.40;56.40;;;;;;4980934;28;19917;-72
2022/05/13 18:16:46;;;;;;;;;;;22.30;56.50;;;;;;5032217;28;19917;-72
2022/05/13 18:19:13;;;;;;;;;;;22.20;56.70;;;;;;5034301;28;19920;-72
2022/05/13 18:21:38;;;;;;;;;;;22.10;56.60;;;;;;5034393;28;19923;-72
2022/05/13 18:24:04;;;;;;;;;;;22.10;56.60;;;;;;5035707;28;19913;-72
2022/05/13 18:26:30;;;;;;;;;;;22.00;56.70;;;;;;5035710;28;19931;-72
2022/05/13 18:28:55;;;;;;;;;;;21.90;56.80;;;;;;5008414;28;19961;-72
2022/05/13 18:31:21;;;;;;;;;;;21.90;57.40;;;;;;5002727;28;19932;-72
2022/05/13 18:33:47;;;;;;;;;;;21.80;57.20;;;;;;5005550;28;20016;-72
2022/05/13 18:36:13;;;;;;;;;;;21.70;57.40;;;;;;5008617;28;19918;-72
2022/05/13 18:38:39;;;;;;;;;;;21.70;57.50;;;;;;5008427;28;19924;-72
2022/05/13 18:46:36;;;;;;;;;;;21.50;57.90;;;;;;5001339;28;20015;-70
2022/05/13 18:49:02;;;;;;;;;;;21.40;57.50;;;;;;5012970;28;19913;-70
2022/05/13 18:51:28;;;;;;;;;;;21.40;58.00;;;;;;5004509;28;19928;-72
2022/05/13 18:53:54;;;;;;;;;;;21.30;57.80;;;;;;5007432;28;19913;-72
2022/05/13 18:56:22;;;;;;;;;;;21.20;57.90;;;;;;5004164;28;19917;-73
2022/05/13 18:58:47;;;;;;;;;;;21.20;58.10;;;;;;5006796;28;20557;-71
2022/05/13 19:01:13;;;;;;;;;;;21.10;58.10;;;;;;5008973;28;19921;-71
2022/05/13 19:03:39;;;;;;;;;;;21.10;58.20;;;;;;4999842;28;20039;-72
2022/05/13 19:06:05;;;;;;;;;;;21.00;58.20;;;;;;5005356;28;20602;-72
2022/05/13 19:08:31;;;;;;;;;;;20.90;58.30;;;;;;5007253;28;19929;-71
2022/05/13 19:10:57;;;;;;;;;;;20.90;58.40;;;;;;5006447;28;19937;-72
2022/05/13 19:13:23;;;;;;;;;;;20.80;58.50;;;;;;5006384;28;20001;-72
2022/05/13 19:15:50;;;;;;;;;;;20.80;58.50;;;;;;5009139;28;20031;-72
2022/05/13 19:18:17;;;;;;;;;;;20.70;58.30;;;;;;4994975;28;19941;-72
2022/05/13 19:20:43;;;;;;;;;;;20.70;58.30;;;;;;5007880;28;19929;-72
2022/05/13 19:23:09;;;;;;;;;;;20.60;58.20;;;;;;5006028;28;20538;-72
2022/05/13 19:25:35;;;;;;;;;;;20.60;58.40;;;;;;5004733;28;19914;-72
2022/05/13 19:28:01;;;;;;;;;;;20.50;58.40;;;;;;5009308;28;19932;-74
2022/05/13 19:30:27;;;;;;;;;;;20.50;58.50;;;;;;5008668;28;19920;-72
2022/05/13 19:32:52;;;;;;;;;;;20.40;58.60;;;;;;5017490;28;19944;-75
2022/05/13 19:35:18;;;;;;;;;;;20.30;58.70;;;;;;5004073;28;20020;-74
2022/05/13 19:37:45;;;;;;;;;;;20.30;58.70;;;;;;5014306;28;20023;-75
2022/05/13 19:40:11;;;;;;;;;;;20.20;58.70;;;;;;4999651;28;20643;-75
2022/05/13 19:42:37;;;;;;;;;;;20.20;58.80;;;;;;5003400;28;19921;-73
2022/05/13 19:45:03;;;;;;;;;;;20.10;58.90;;;;;;5015533;28;19917;-73
2022/05/13 19:47:29;;;;;;;;;;;20.10;59.00;;;;;;5012597;28;19917;-73
2022/05/13 19:49:54;;;;;;;;;;;20.00;59.10;;;;;;5012924;28;19923;-72
2022/05/13 19:52:20;;;;;;;;;;;20.00;59.10;;;;;;5017431;28;19917;-72
2022/05/13 19:54:50;;;;;;;;;;;19.90;59.20;;;;;;5000184;28;20715;-73
2022/05/13 19:57:16;;;;;;;;;;;19.90;59.30;;;;;;5017290;28;19918;-72
2022/05/13 19:59:42;;;;;;;;;;;19.80;59.40;;;;;;5011818;28;19937;-74
2022/05/13 20:02:07;;;;;;;;;;;19.80;59.40;;;;;;5015460;28;19917;-72
2022/05/13 20:04:33;;;;;;;;;;;19.80;59.50;;;;;;5011804;28;20258;-72
2022/05/13 20:12:26;;;;;;;;;;;19.60;59.70;;;;;;5011822;28;19959;-73
2022/05/13 20:14:52;;;;;;;;;;;19.60;59.60;;;;;;5012431;28;19921;-71
2022/05/13 20:17:18;;;;;;;;;;;19.50;59.70;;;;;;5007602;28;20008;-70
2022/05/13 20:25:12;;;;;;;;;;;19.40;59.80;;;;;;5013445;28;20269;-71
2022/05/13 20:27:38;;;;;;;;;;;19.40;59.90;;;;;;5044721;28;19921;-70
2022/05/13 20:30:05;;;;;;;;;;;19.40;60.00;;;;;;5032241;28;19916;-70
2022/05/13 20:32:30;;;;;;;;;;;19.30;60.00;;;;;;5027778;28;19987;-70
2022/05/13 20:34:56;;;;;;;;;;;19.30;60.30;;;;;;5024542;28;20034;-70
2022/05/13 20:37:21;;;;;;;;;;;19.20;60.50;;;;;;5033611;28;20395;-70
2022/05/13 20:39:47;;;;;;;;;;;19.20;60.70;;;;;;5024528;28;19920;-69
2022/05/13 20:42:12;;;;;;;;;;;19.20;60.50;;;;;;5038655;28;19971;-70
2022/05/13 20:44:37;;;;;;;;;;;19.10;60.40;;;;;;5045157;28;19917;-69
2022/05/13 20:47:03;;;;;;;;;;;19.10;60.50;;;;;;5042489;28;19940;-69
2022/05/13 20:49:29;;;;;;;;;;;19.00;60.70;;;;;;5044632;28;19943;-70
2022/05/13 20:51:55;;;;;;;;;;;19.00;60.90;;;;;;5018323;28;20250;-70
2022/05/13 20:54:20;;;;;;;;;;;19.00;60.70;;;;;;5020865;28;19963;-70
2022/05/13 20:56:46;;;;;;;;;;;18.90;60.90;;;;;;5009278;28;19924;-70
2022/05/13 20:59:12;;;;;;;;;;;18.90;60.60;;;;;;5023311;28;19914;-71
2022/05/13 21:01:38;;;;;;;;;;;18.80;60.90;;;;;;5013699;28;19976;-70
2022/05/13 21:04:06;;;;;;;;;;;18.80;61.10;;;;;;5005714;28;19913;-69
2022/05/13 21:06:32;;;;;;;;;;;18.80;61.10;;;;;;5012120;28;20362;-70
2022/05/13 21:08:57;;;;;;;;;;;18.70;61.10;;;;;;5015062;28;19959;-70
2022/05/13 21:11:23;;;;;;;;;;;18.70;61.00;;;;;;5017419;28;20001;-69
2022/05/13 21:13:48;;;;;;;;;;;18.70;61.30;;;;;;5023664;28;19967;-70
2022/05/13 21:16:14;;;;;;;;;;;18.60;61.20;;;;;;5026999;28;20540;-70
2022/05/13 21:18:40;;;;;;;;;;;18.60;61.60;;;;;;5016270;28;19921;-70
2022/05/13 21:21:06;;;;;;;;;;;18.60;61.20;;;;;;5021037;28;20000;-70
2022/05/13 21:23:32;;;;;;;;;;;18.50;61.60;;;;;;5009449;28;20297;-69
2022/05/13 21:25:57;;;;;;;;;;;18.50;61.30;;;;;;5020948;28;19913;-69
2022/05/13 21:28:23;;;;;;;;;;;18.50;61.40;;;;;;5034315;28;19921;-69
2022/05/13 21:30:48;;;;;;;;;;;18.40;61.20;;;;;;5035743;28;19920;-69
2022/05/13 21:38:42;;;;;;;;;;;18.40;61.70;;;;;;5042891;28;19971;-69
2022/05/13 21:41:08;;;;;;;;;;;18.30;61.90;;;;;;5042662;28;20328;-69
2022/05/13 21:43:34;;;;;;;;;;;18.30;61.90;;;;;;5036078;28;20007;-70
2022/05/13 21:45:59;;;;;;;;;;;18.20;61.90;;;;;;5036094;28;20629;-69
2022/05/13 21:48:25;;;;;;;;;;;18.10;61.90;;;;;;5040538;28;19924;-69
2022/05/13 21:50:50;;;;;;;;;;;18.10;61.90;;;;;;5044073;28;19925;-70
2022/05/13 21:53:15;;;;;;;;;;;18.10;62.10;;;;;;5033726;28;19912;-70
2022/05/13 21:55:41;;;;;;;;;;;18.00;61.70;;;;;;5040891;28;19912;-69
2022/05/13 21:58:07;;;;;;;;;;;18.00;62.20;;;;;;5045895;28;19912;-70
2022/05/13 22:00:38;;;;;;;;;;;18.00;62.10;;;;;;5027641;28;19921;-69
2022/05/13 22:03:05;;;;;;;;;;;17.90;62.20;;;;;;5040744;28;20281;-70
2022/05/13 22:05:31;;;;;;;;;;;18.00;62.30;;;;;;5038492;28;19917;-70
2022/05/13 22:07:56;;;;;;;;;;;17.90;62.40;;;;;;5042234;28;19917;-69
2022/05/13 22:10:22;;;;;;;;;;;17.90;62.50;;;;;;5039616;28;19993;-70
2022/05/13 22:12:48;;;;;;;;;;;17.80;62.40;;;;;;5047928;28;19913;-69
2022/05/13 22:15:13;;;;;;;;;;;17.80;62.50;;;;;;5042183;28;19917;-69
2022/05/13 22:17:39;;;;;;;;;;;17.80;62.70;;;;;;5029281;28;19913;-70
2022/05/13 22:20:05;;;;;;;;;;;17.70;62.40;;;;;;5040330;28;19952;-70
2022/05/13 22:22:31;;;;;;;;;;;17.70;62.50;;;;;;5067585;28;19916;-70
2022/05/13 22:24:56;;;;;;;;;;;17.70;62.70;;;;;;5059209;28;19970;-70
2022/05/13 22:27:22;;;;;;;;;;;17.60;62.90;;;;;;5054231;28;20000;-70
2022/05/13 22:29:47;;;;;;;;;;;17.60;62.90;;;;;;5064972;28;20280;-69
2022/05/13 22:32:14;;;;;;;;;;;17.60;62.90;;;;;;5067117;28;19913;-70
2022/05/13 22:34:40;;;;;;;;;;;17.50;63.00;;;;;;5053069;28;19924;-69
2022/05/13 22:37:06;;;;;;;;;;;17.50;63.00;;;;;;5066307;28;19913;-69
2022/05/13 22:39:31;;;;;;;;;;;17.40;63.00;;;;;;5050057;28;19960;-69
2022/05/13 22:41:57;;;;;;;;;;;17.40;63.30;;;;;;5062260;28;19985;-69
2022/05/13 22:44:23;;;;;;;;;;;17.40;63.10;;;;;;5067772;28;20373;-69
2022/05/13 22:46:49;;;;;;;;;;;17.40;63.30;;;;;;5064093;28;19920;-69
2022/05/13 22:49:15;;;;;;;;;;;17.30;63.40;;;;;;5066868;28;19913;-69
2022/05/13 22:51:41;;;;;;;;;;;17.30;63.50;;;;;;5056645;28;19920;-69
2022/05/13 22:54:06;;;;;;;;;;;17.30;63.50;;;;;;5067352;28;19919;-69
2022/05/13 22:56:32;;;;;;;;;;;17.30;63.60;;;;;;5064371;28;19920;-69
2022/05/13 22:58:57;;;;;;;;;;;17.20;63.50;;;;;;5067191;28;19956;-69
2022/05/13 23:01:22;;;;;;;;;;;17.10;63.60;;;;;;5064366;28;19916;-69
2022/05/13 23:03:48;;;;;;;;;;;17.10;63.50;;;;;;5066752;28;19920;-68
2022/05/13 23:11:43;;;;;;;;;;;17.00;63.90;;;;;;5041098;28;19916;-69
2022/05/13 23:14:09;;;;;;;;;;;17.00;64.10;;;;;;5049870;28;20348;-69
2022/05/13 23:16:34;;;;;;;;;;;16.90;64.10;;;;;;5039617;28;19916;-69
2022/05/13 23:19:01;;;;;;;;;;;16.90;64.00;;;;;;5065458;28;19920;-69
2022/05/13 23:21:27;;;;;;;;;;;16.90;64.30;;;;;;5063320;28;19912;-69
2022/05/13 23:23:52;;;;;;;;;;;16.80;64.40;;;;;;5065026;28;19922;-70
2022/05/13 23:26:19;;;;;;;;;;;16.80;64.50;;;;;;5048433;28;19916;-69
2022/05/13 23:28:45;;;;;;;;;;;16.80;64.30;;;;;;5045778;28;19955;-69
2022/05/13 23:31:11;;;;;;;;;;;16.80;64.50;;;;;;5066589;28;20003;-70
2022/05/13 23:33:36;;;;;;;;;;;16.70;64.70;;;;;;5059447;28;19971;-69
2022/05/13 23:36:02;;;;;;;;;;;16.70;64.80;;;;;;5045762;28;19919;-69
2022/05/13 23:38:28;;;;;;;;;;;16.70;64.80;;;;;;5046990;28;19948;-70
2022/05/13 23:40:53;;;;;;;;;;;16.60;64.80;;;;;;5035372;28;19940;-69
2022/05/13 23:43:19;;;;;;;;;;;16.60;64.90;;;;;;5041768;28;20020;-69
2022/05/13 23:45:45;;;;;;;;;;;16.60;64.90;;;;;;5063830;28;20551;-69
2022/05/13 23:48:10;;;;;;;;;;;16.60;65.00;;;;;;5049576;28;20392;-69
2022/05/13 23:50:36;;;;;;;;;;;16.50;65.10;;;;;;5065982;28;19970;-70
2022/05/13 23:56:04;;;;;;;;;;;16.50;65.10;;;;;;5065958;28;19919;-70
2022/05/13 23:58:29;;;;;;;;;;;16.50;65.60;;;;;;5045714;28;20567;-69
